createdAt,value
2023-03-31T00:02:13.472Z,9.50
2023-03-31T00:04:52.683Z,9.50
2023-03-31T00:07:24.226Z,9.40
2023-03-31T00:10:00.945Z,9.50
2023-03-31T00:12:37.405Z,9.40
2023-03-31T00:15:04.516Z,9.40
2023-03-31T00:17:33.305Z,9.30
2023-03-31T00:20:08.750Z,9.40
2023-03-31T00:22:38.535Z,9.30
2023-03-31T00:25:06.674Z,9.10
2023-03-31T00:27:33.354Z,9.10
2023-03-31T00:30:00.193Z,9.10
2023-03-31T00:32:26.935Z,9.10
2023-03-31T00:34:53.653Z,9.20
2023-03-31T00:37:20.348Z,9.20
2023-03-31T00:39:47.132Z,9.20
2023-03-31T00:42:13.965Z,9.20
2023-03-31T00:45:15.042Z,9.20
2023-03-31T00:47:52.427Z,9.10
2023-03-31T00:50:30.090Z,9.00
2023-03-31T00:53:01.349Z,9.00
2023-03-31T00:55:33.599Z,9.00
2023-03-31T00:58:02.013Z,9.00
2023-03-31T01:00:30.266Z,9.10
2023-03-31T01:02:59.697Z,9.10
2023-03-31T01:05:32.377Z,9.00
2023-03-31T01:08:00.566Z,9.10
2023-03-31T01:10:28.428Z,9.00
2023-03-31T01:12:57.414Z,9.00
2023-03-31T01:15:24.225Z,9.00
2023-03-31T01:17:55.878Z,9.00
2023-03-31T01:21:03.831Z,8.90
2023-03-31T01:23:56.978Z,8.90
2023-03-31T01:26:38.886Z,8.90
2023-03-31T01:29:33.096Z,8.90
2023-03-31T01:32:05.844Z,8.80
2023-03-31T01:34:50.699Z,8.80
2023-03-31T01:37:47.665Z,8.80
2023-03-31T01:40:32.480Z,8.80
2023-03-31T01:43:18.323Z,8.90
2023-03-31T01:45:54.101Z,8.90
2023-03-31T01:48:46.222Z,8.80
2023-03-31T01:51:19.108Z,8.80
2023-03-31T01:54:09.548Z,8.80
2023-03-31T01:56:41.125Z,8.80
2023-03-31T01:59:16.344Z,8.80
2023-03-31T02:01:51.888Z,8.80
2023-03-31T02:04:23.707Z,8.70
2023-03-31T02:06:59.296Z,8.80
2023-03-31T02:09:31.502Z,8.80
2023-03-31T02:11:59.331Z,8.80
2023-03-31T02:14:31.103Z,8.90
2023-03-31T02:17:02.219Z,9.00
2023-03-31T02:19:33.772Z,9.00
2023-03-31T02:22:04.450Z,9.10
2023-03-31T02:24:32.992Z,9.20
2023-03-31T02:27:24.761Z,9.30
2023-03-31T02:29:52.104Z,9.30
2023-03-31T02:32:32.620Z,9.30
2023-03-31T02:35:01.091Z,9.40
2023-03-31T02:37:29.662Z,9.40
2023-03-31T02:39:59.977Z,9.30
2023-03-31T02:42:27.198Z,9.40
2023-03-31T02:44:53.947Z,9.30
2023-03-31T02:47:22.011Z,9.30
2023-03-31T02:49:56.982Z,9.40
2023-03-31T02:52:36.462Z,9.50
2023-03-31T02:55:31.647Z,9.50
2023-03-31T02:58:23.886Z,9.50
2023-03-31T03:00:53.810Z,9.60
2023-03-31T03:03:55.257Z,9.60
2023-03-31T03:06:37.781Z,9.70
2023-03-31T03:09:32.622Z,9.70
2023-03-31T03:12:11.225Z,9.60
2023-03-31T03:15:00.427Z,9.70
2023-03-31T03:17:35.225Z,9.70
2023-03-31T03:20:08.338Z,9.70
2023-03-31T03:22:37.264Z,9.70
2023-03-31T03:25:06.026Z,9.70
2023-03-31T03:27:32.838Z,9.70
2023-03-31T03:29:59.600Z,9.80
2023-03-31T03:32:26.579Z,9.80
2023-03-31T03:34:53.363Z,9.80
2023-03-31T03:37:20.371Z,9.80
2023-03-31T03:39:47.136Z,9.70
2023-03-31T03:42:14.104Z,9.70
2023-03-31T03:44:41.113Z,9.70
2023-03-31T03:47:08.127Z,9.70
2023-03-31T03:49:34.853Z,9.70
2023-03-31T03:52:01.587Z,9.70
2023-03-31T03:54:28.576Z,9.70
2023-03-31T03:56:55.471Z,9.80
2023-03-31T03:59:22.374Z,9.70
2023-03-31T04:01:49.475Z,9.60
2023-03-31T04:04:16.400Z,9.50
2023-03-31T04:06:43.153Z,9.40
2023-03-31T04:09:09.911Z,9.40
2023-03-31T04:11:36.742Z,9.50
2023-03-31T04:14:03.772Z,9.50
2023-03-31T04:16:30.892Z,9.50
2023-03-31T04:18:59.124Z,9.50
2023-03-31T04:21:26.332Z,9.60
2023-03-31T04:24:04.752Z,9.60
2023-03-31T04:26:43.148Z,9.60
2023-03-31T04:29:16.698Z,9.60
2023-03-31T04:31:44.218Z,9.60
2023-03-31T04:34:13.752Z,9.60
2023-03-31T04:36:48.689Z,9.70
2023-03-31T04:39:30.870Z,9.70
2023-03-31T04:42:01.466Z,9.80
2023-03-31T04:44:28.756Z,9.70
2023-03-31T04:46:56.227Z,9.70
2023-03-31T04:49:23.146Z,9.80
2023-03-31T04:51:50.351Z,9.70
2023-03-31T04:54:17.280Z,9.70
2023-03-31T04:56:44.218Z,9.80
2023-03-31T04:59:11.238Z,9.80
2023-03-31T05:01:38.321Z,9.70
2023-03-31T05:04:05.831Z,9.70
2023-03-31T05:06:33.410Z,9.70
2023-03-31T05:09:00.443Z,9.70
2023-03-31T05:11:27.593Z,9.80
2023-03-31T05:13:54.607Z,9.80
2023-03-31T05:16:21.598Z,9.70
2023-03-31T05:18:48.360Z,9.70
2023-03-31T05:21:17.909Z,9.60
2023-03-31T05:23:45.991Z,9.60
2023-03-31T05:26:13.775Z,9.60
2023-03-31T05:28:41.390Z,9.60
2023-03-31T05:31:09.572Z,9.70
2023-03-31T05:33:40.397Z,9.70
2023-03-31T05:36:12.131Z,9.70
2023-03-31T05:38:40.206Z,9.70
2023-03-31T05:41:09.597Z,9.70
2023-03-31T05:43:37.156Z,9.80
2023-03-31T05:46:04.876Z,9.80
2023-03-31T05:48:32.156Z,9.90
2023-03-31T05:50:59.857Z,10.00
2023-03-31T05:53:27.578Z,10.00
2023-03-31T05:56:02.110Z,10.10
2023-03-31T05:58:29.655Z,10.20
2023-03-31T06:01:19.495Z,10.30
2023-03-31T06:03:47.164Z,10.40
2023-03-31T06:06:15.074Z,10.40
2023-03-31T06:08:45.759Z,10.50
2023-03-31T06:11:15.518Z,10.60
2023-03-31T06:13:43.105Z,10.60
2023-03-31T06:16:12.462Z,10.70
2023-03-31T06:18:39.874Z,10.70
2023-03-31T06:21:06.824Z,10.80
2023-03-31T06:23:34.570Z,10.70
2023-03-31T06:26:07.146Z,10.60
2023-03-31T06:28:35.404Z,10.60
2023-03-31T06:31:07.787Z,10.70
2023-03-31T06:33:35.733Z,10.60
2023-03-31T06:36:05.726Z,10.60
2023-03-31T06:38:34.553Z,10.60
2023-03-31T06:41:01.462Z,10.60
2023-03-31T06:43:28.974Z,10.60
2023-03-31T06:45:56.171Z,10.50
2023-03-31T06:48:25.182Z,10.40
2023-03-31T06:50:54.096Z,10.30
2023-03-31T06:53:22.177Z,10.20
2023-03-31T06:55:49.007Z,10.20
2023-03-31T06:58:16.121Z,10.10
2023-03-31T07:00:43.063Z,10.00
2023-03-31T07:03:09.913Z,9.90
2023-03-31T07:05:36.774Z,9.90
2023-03-31T07:08:03.731Z,9.80
2023-03-31T07:10:33.492Z,9.70
2023-03-31T07:13:00.412Z,9.80
2023-03-31T07:15:28.652Z,9.90
2023-03-31T07:18:02.062Z,9.90
2023-03-31T07:20:30.582Z,9.90
2023-03-31T07:22:57.522Z,9.80
2023-03-31T07:25:24.378Z,9.80
2023-03-31T07:27:51.176Z,9.80
2023-03-31T07:30:20.101Z,9.80
2023-03-31T07:32:48.453Z,9.80
2023-03-31T07:35:16.106Z,9.80
2023-03-31T07:37:45.262Z,9.80
2023-03-31T07:40:15.898Z,9.90
2023-03-31T07:42:43.109Z,10.00
2023-03-31T07:45:10.525Z,10.20
2023-03-31T07:47:38.571Z,10.20
2023-03-31T07:50:06.371Z,10.30
2023-03-31T07:52:33.126Z,10.40
2023-03-31T07:54:59.859Z,10.50
2023-03-31T07:57:26.733Z,10.60
2023-03-31T07:59:53.444Z,10.70
2023-03-31T08:02:20.580Z,11.00
2023-03-31T08:04:47.726Z,11.10
2023-03-31T08:07:16.628Z,11.20
2023-03-31T08:09:45.701Z,11.20
2023-03-31T08:12:14.138Z,11.40
2023-03-31T08:14:41.786Z,11.50
2023-03-31T08:17:10.367Z,11.50
2023-03-31T08:19:37.184Z,11.50
2023-03-31T08:22:04.276Z,11.50
2023-03-31T08:24:31.226Z,11.50
2023-03-31T08:26:57.978Z,11.40
2023-03-31T08:29:24.767Z,11.30
2023-03-31T08:31:51.789Z,11.30
2023-03-31T08:34:18.562Z,11.20
2023-03-31T08:36:45.389Z,11.00
2023-03-31T08:39:13.015Z,11.10
2023-03-31T08:42:27.211Z,11.10
2023-03-31T08:45:21.204Z,11.10
2023-03-31T08:47:52.335Z,11.30
2023-03-31T08:50:25.491Z,11.30
2023-03-31T08:53:07.519Z,11.40
2023-03-31T08:55:55.453Z,11.60
2023-03-31T08:58:31.872Z,11.70
2023-03-31T09:01:24.361Z,11.80
2023-03-31T09:04:03.681Z,12.00
2023-03-31T09:07:12.472Z,12.30
2023-03-31T09:09:58.003Z,12.60
2023-03-31T09:12:28.311Z,13.00
2023-03-31T09:15:02.263Z,13.30
2023-03-31T09:17:39.122Z,13.60
2023-03-31T09:20:30.999Z,13.70
2023-03-31T09:23:17.360Z,13.90
2023-03-31T09:25:44.815Z,14.00
2023-03-31T09:28:19.520Z,13.90
2023-03-31T09:30:51.181Z,14.00
2023-03-31T09:33:22.645Z,14.20
2023-03-31T09:35:51.441Z,14.40
2023-03-31T09:38:18.990Z,14.60
2023-03-31T09:40:45.854Z,14.70
2023-03-31T09:43:27.519Z,15.00
2023-03-31T09:46:08.671Z,15.20
2023-03-31T09:48:50.721Z,15.30
2023-03-31T09:51:24.613Z,15.50
2023-03-31T09:53:56.573Z,15.80
2023-03-31T09:56:44.507Z,15.80
2023-03-31T09:59:23.665Z,16.00
2023-03-31T10:01:53.585Z,16.30
2023-03-31T10:04:24.303Z,16.00
2023-03-31T10:06:54.738Z,16.10
2023-03-31T10:09:26.493Z,16.20
2023-03-31T10:12:08.210Z,16.10
2023-03-31T10:14:45.685Z,16.10
2023-03-31T10:17:27.892Z,16.10
2023-03-31T10:20:05.931Z,16.00
2023-03-31T10:22:33.339Z,15.80
2023-03-31T10:25:29.380Z,15.90
2023-03-31T10:27:57.257Z,16.00
2023-03-31T10:30:30.512Z,16.10
2023-03-31T10:33:00.014Z,16.20
2023-03-31T10:35:35.396Z,16.40
2023-03-31T10:38:11.068Z,16.60
2023-03-31T10:40:40.126Z,16.80
2023-03-31T10:43:17.289Z,16.90
2023-03-31T10:45:56.563Z,17.00
2023-03-31T10:48:34.362Z,17.00
2023-03-31T10:51:25.672Z,17.00
2023-03-31T10:53:54.827Z,17.00
2023-03-31T10:56:27.519Z,16.90
2023-03-31T10:59:12.998Z,16.70
2023-03-31T11:02:07.398Z,16.50
2023-03-31T11:04:56.903Z,16.30
2023-03-31T11:07:41.180Z,16.20
2023-03-31T11:10:23.956Z,16.10
2023-03-31T11:13:13.471Z,16.00
2023-03-31T11:15:52.177Z,15.90
2023-03-31T11:18:45.387Z,15.80
2023-03-31T11:22:13.326Z,16.00
2023-03-31T11:24:58.835Z,16.20
2023-03-31T11:27:49.742Z,16.30
2023-03-31T11:30:24.915Z,16.30
2023-03-31T11:33:22.621Z,16.30
2023-03-31T11:36:26.347Z,16.30
2023-03-31T11:39:25.041Z,16.40
2023-03-31T11:42:05.813Z,16.40
2023-03-31T11:44:42.813Z,16.40
2023-03-31T11:47:15.570Z,16.30
2023-03-31T11:49:56.036Z,16.30
2023-03-31T11:52:30.674Z,16.30
2023-03-31T11:55:15.604Z,16.30
2023-03-31T11:57:48.046Z,16.30
2023-03-31T12:00:32.698Z,16.20
2023-03-31T12:03:02.713Z,16.20
2023-03-31T12:05:33.112Z,16.20
2023-03-31T12:08:15.765Z,16.20
2023-03-31T12:10:58.796Z,16.20
2023-03-31T12:13:34.406Z,16.30
2023-03-31T12:16:05.955Z,16.30
2023-03-31T12:18:40.036Z,16.40
2023-03-31T12:21:07.823Z,16.40
2023-03-31T12:23:43.202Z,16.50
2023-03-31T12:26:31.627Z,16.60
2023-03-31T12:29:01.720Z,16.60
2023-03-31T12:31:30.523Z,16.60
2023-03-31T12:34:02.977Z,16.60
2023-03-31T12:36:46.780Z,16.60
2023-03-31T12:39:31.809Z,16.60
2023-03-31T12:42:23.474Z,16.40
2023-03-31T12:45:10.195Z,16.10
2023-03-31T12:47:55.659Z,15.90
2023-03-31T12:50:41.004Z,15.80
2023-03-31T12:53:30.325Z,15.70
2023-03-31T12:55:58.459Z,15.60
2023-03-31T12:58:26.666Z,15.60
2023-03-31T13:01:24.738Z,15.30
2023-03-31T13:04:20.124Z,15.20
2023-03-31T13:06:54.067Z,14.80
2023-03-31T13:09:41.970Z,14.20
2023-03-31T13:12:14.744Z,13.70
2023-03-31T13:14:44.624Z,13.40
2023-03-31T13:17:23.680Z,13.30
2023-03-31T13:19:51.709Z,13.30
2023-03-31T13:22:38.022Z,13.50
2023-03-31T13:25:27.273Z,13.70
2023-03-31T13:27:54.113Z,13.70
2023-03-31T13:30:36.212Z,13.70
2023-03-31T13:33:10.805Z,13.80
2023-03-31T13:35:39.833Z,13.80
2023-03-31T13:38:15.440Z,13.90
2023-03-31T13:41:18.708Z,13.90
2023-03-31T13:43:55.741Z,14.10
2023-03-31T13:46:43.031Z,14.10
2023-03-31T13:49:47.143Z,14.10
2023-03-31T13:52:14.217Z,14.20
2023-03-31T13:55:33.060Z,14.20
2023-03-31T13:58:29.947Z,14.20
2023-03-31T14:01:39.119Z,14.30
2023-03-31T14:04:30.910Z,14.40
2023-03-31T14:07:11.212Z,14.30
2023-03-31T14:09:44.038Z,14.20
2023-03-31T14:12:34.589Z,14.20
2023-03-31T14:15:02.156Z,14.30
2023-03-31T14:17:31.857Z,14.30
2023-03-31T14:20:14.100Z,14.40
2023-03-31T14:23:11.684Z,14.40
2023-03-31T14:25:55.187Z,14.40
2023-03-31T14:28:54.207Z,14.30
2023-03-31T14:31:35.558Z,14.20
2023-03-31T14:34:42.591Z,14.20
2023-03-31T14:37:22.823Z,14.30
2023-03-31T14:39:56.459Z,14.10
2023-03-31T14:42:42.978Z,14.00
2023-03-31T14:45:17.953Z,13.80
2023-03-31T14:48:13.890Z,13.60
2023-03-31T14:50:46.590Z,13.30
2023-03-31T14:53:17.992Z,13.20
2023-03-31T14:55:57.982Z,13.10
2023-03-31T14:58:34.946Z,13.20
2023-03-31T15:01:04.881Z,13.20
2023-03-31T15:03:34.049Z,13.40
2023-03-31T15:06:03.410Z,13.50
2023-03-31T15:08:31.876Z,13.40
2023-03-31T15:11:12.016Z,13.30
2023-03-31T15:14:00.697Z,13.20
2023-03-31T15:16:42.704Z,13.20
2023-03-31T15:19:26.310Z,13.30
2023-03-31T15:22:01.968Z,13.40
2023-03-31T15:24:29.650Z,13.50
2023-03-31T15:27:37.191Z,13.60
2023-03-31T15:30:07.723Z,13.60
2023-03-31T15:32:40.143Z,13.60
2023-03-31T15:37:47.902Z,13.50
2023-03-31T15:40:28.290Z,13.30
2023-03-31T15:43:13.946Z,13.10
2023-03-31T15:45:52.904Z,13.00
2023-03-31T15:48:23.659Z,13.00
2023-03-31T15:50:51.821Z,12.90
2023-03-31T15:53:29.575Z,12.80
2023-03-31T15:56:00.338Z,12.70
2023-03-31T15:58:47.450Z,12.70
2023-03-31T16:01:16.305Z,12.60
2023-03-31T16:03:45.757Z,12.60
2023-03-31T16:06:24.022Z,12.50
2023-03-31T16:09:00.507Z,12.60
2023-03-31T16:11:58.100Z,12.60
2023-03-31T16:14:43.358Z,12.60
2023-03-31T16:17:20.354Z,12.60
2023-03-31T16:19:55.719Z,12.60
2023-03-31T16:22:27.993Z,12.60
2023-03-31T16:24:54.943Z,12.60
2023-03-31T16:27:23.120Z,12.30
2023-03-31T16:29:49.858Z,12.20
2023-03-31T16:32:19.462Z,12.00
2023-03-31T16:34:56.796Z,12.00
2023-03-31T16:37:24.336Z,12.00
2023-03-31T16:39:51.741Z,12.00
2023-03-31T16:42:19.789Z,11.90
2023-03-31T16:44:52.900Z,11.80
2023-03-31T16:47:35.301Z,11.70
2023-03-31T16:52:53.892Z,11.60
2023-03-31T16:55:20.646Z,11.60
2023-03-31T16:57:48.469Z,11.50
2023-03-31T17:00:15.715Z,11.50
2023-03-31T17:02:42.804Z,11.50
2023-03-31T17:05:13.303Z,11.40
2023-03-31T17:07:40.816Z,11.40
2023-03-31T17:10:08.322Z,11.30
2023-03-31T17:12:35.310Z,11.20
2023-03-31T17:15:02.047Z,11.10
2023-03-31T17:17:30.125Z,10.90
2023-03-31T17:19:57.485Z,10.80
2023-03-31T17:22:24.240Z,10.70
2023-03-31T17:24:56.948Z,10.70
2023-03-31T17:27:27.461Z,10.60
2023-03-31T17:29:54.826Z,10.60
2023-03-31T17:32:22.561Z,10.50
2023-03-31T17:34:50.397Z,10.40
2023-03-31T17:37:18.583Z,10.40
2023-03-31T17:39:46.077Z,10.30
2023-03-31T17:42:14.061Z,10.20
2023-03-31T17:44:41.387Z,10.30
2023-03-31T17:47:08.351Z,10.20
2023-03-31T17:49:35.054Z,10.20
2023-03-31T17:52:01.857Z,10.10
2023-03-31T17:54:28.662Z,10.10
2023-03-31T17:56:56.477Z,10.10
2023-03-31T17:59:24.023Z,10.20
2023-03-31T18:01:51.323Z,10.20
2023-03-31T18:04:18.444Z,10.10
2023-03-31T18:06:47.441Z,10.10
2023-03-31T18:09:15.095Z,10.10
2023-03-31T18:11:41.824Z,10.20
2023-03-31T18:14:09.144Z,10.20
2023-03-31T18:16:37.039Z,10.10
2023-03-31T18:19:03.911Z,10.20
2023-03-31T18:21:31.123Z,10.20
2023-03-31T18:23:58.010Z,10.20
2023-03-31T18:26:27.131Z,10.10
2023-03-31T18:28:53.950Z,10.10
2023-03-31T18:31:22.323Z,10.10
2023-03-31T18:33:49.294Z,10.00
2023-03-31T18:36:20.391Z,10.00
2023-03-31T18:38:48.389Z,10.00
2023-03-31T18:41:15.946Z,10.00
2023-03-31T18:43:42.714Z,9.90
2023-03-31T18:46:10.620Z,9.90
2023-03-31T18:48:38.507Z,9.90
2023-03-31T18:51:05.582Z,9.90
2023-03-31T18:53:32.480Z,9.90
2023-03-31T18:55:59.663Z,9.70
2023-03-31T18:58:30.171Z,9.60
2023-03-31T19:00:58.055Z,9.60
2023-03-31T19:03:26.709Z,9.50
2023-03-31T19:06:07.339Z,9.50
2023-03-31T19:08:34.152Z,9.50
2023-03-31T19:11:07.419Z,9.50
2023-03-31T19:13:34.419Z,9.50
2023-03-31T19:16:01.663Z,9.40
2023-03-31T19:18:31.925Z,9.40
2023-03-31T19:21:00.176Z,9.50
2023-03-31T19:23:27.151Z,9.40
2023-03-31T19:25:55.131Z,9.40
2023-03-31T19:28:24.344Z,9.40
2023-03-31T19:30:52.648Z,9.50
2023-03-31T19:33:20.066Z,9.50
2023-03-31T19:35:48.394Z,9.50
2023-03-31T19:38:15.337Z,9.50
2023-03-31T19:40:42.891Z,9.60
2023-03-31T19:43:21.558Z,9.60
2023-03-31T19:45:49.287Z,9.60
2023-03-31T19:48:16.779Z,9.60
2023-03-31T19:50:51.723Z,9.60
2023-03-31T19:53:19.618Z,9.60
2023-03-31T19:56:01.539Z,9.50
2023-03-31T19:58:29.453Z,9.50
2023-03-31T20:00:57.738Z,9.50
2023-03-31T20:03:26.322Z,9.50
2023-03-31T20:06:01.477Z,9.60
2023-03-31T20:08:28.217Z,9.60
2023-03-31T20:11:03.876Z,9.60
2023-03-31T20:13:32.576Z,9.60
2023-03-31T20:16:04.704Z,9.60
2023-03-31T20:18:31.705Z,9.60
2023-03-31T20:21:10.568Z,9.70
2023-03-31T20:23:38.997Z,9.70
2023-03-31T20:26:08.958Z,9.70
2023-03-31T20:28:36.995Z,9.70
2023-03-31T20:31:11.756Z,9.70
2023-03-31T20:33:39.388Z,9.80
2023-03-31T20:36:17.682Z,9.80
2023-03-31T20:38:46.551Z,9.80
2023-03-31T20:41:13.724Z,9.80
2023-03-31T20:43:41.102Z,9.80
2023-03-31T20:46:09.108Z,9.80
2023-03-31T20:48:40.472Z,9.90
2023-03-31T20:51:13.518Z,9.80
2023-03-31T20:53:43.391Z,9.90
2023-03-31T20:56:12.211Z,9.90
2023-03-31T20:58:40.031Z,9.90
2023-03-31T21:01:08.322Z,9.90
2023-03-31T21:03:35.213Z,9.90
2023-03-31T21:06:11.326Z,9.90
2023-03-31T21:08:39.563Z,9.90
2023-03-31T21:11:06.578Z,9.90
2023-03-31T21:13:33.845Z,9.90
2023-03-31T21:16:01.152Z,9.90
2023-03-31T21:18:29.495Z,9.80
2023-03-31T21:20:59.099Z,9.80
2023-03-31T21:23:27.325Z,9.80
2023-03-31T21:25:56.780Z,9.80
2023-03-31T21:28:26.673Z,9.80
2023-03-31T21:30:55.936Z,9.80
2023-03-31T21:33:24.356Z,9.70
2023-03-31T21:35:52.269Z,9.70
2023-03-31T21:38:19.903Z,9.70
2023-03-31T21:40:47.832Z,9.70
2023-03-31T21:43:15.511Z,9.70
2023-03-31T21:45:42.344Z,9.70
2023-03-31T21:48:10.672Z,9.70
2023-03-31T21:50:39.937Z,9.70
2023-03-31T21:53:08.365Z,9.70
2023-03-31T21:55:37.458Z,9.70
2023-03-31T21:58:05.585Z,9.70
2023-03-31T22:00:32.891Z,9.60
2023-03-31T22:03:16.236Z,9.60
2023-03-31T22:05:46.673Z,9.70
2023-03-31T22:08:13.641Z,9.60
2023-03-31T22:10:40.451Z,9.60
2023-03-31T22:13:07.247Z,9.60
2023-03-31T22:15:34.202Z,9.70
2023-03-31T22:18:01.709Z,9.70
2023-03-31T22:20:28.476Z,9.70
2023-03-31T22:22:55.496Z,9.60
2023-03-31T22:25:22.208Z,9.60
2023-03-31T22:27:48.941Z,9.60
2023-03-31T22:30:15.772Z,9.60
2023-03-31T22:32:42.507Z,9.60
2023-03-31T22:35:09.592Z,9.50
2023-03-31T22:37:36.789Z,9.50
2023-03-31T22:40:04.110Z,9.50
2023-03-31T22:42:30.861Z,9.50
2023-03-31T22:44:57.547Z,9.50
2023-03-31T22:47:24.335Z,9.40
2023-03-31T22:49:51.131Z,9.40
2023-03-31T22:52:17.891Z,9.30
2023-03-31T22:54:44.601Z,9.40
2023-03-31T22:57:11.955Z,9.40
2023-03-31T22:59:39.071Z,9.30
2023-03-31T23:02:06.141Z,9.30
2023-03-31T23:04:32.912Z,9.20
2023-03-31T23:06:59.762Z,9.20
2023-03-31T23:09:27.063Z,9.20
2023-03-31T23:11:53.807Z,9.20
2023-03-31T23:14:20.539Z,9.20
2023-03-31T23:16:47.341Z,9.20
2023-03-31T23:19:14.085Z,9.10
2023-03-31T23:21:41.012Z,9.10
2023-03-31T23:24:07.812Z,9.10
2023-03-31T23:26:34.871Z,9.10
2023-03-31T23:29:02.432Z,9.10
2023-03-31T23:31:31.953Z,9.10
2023-03-31T23:34:00.404Z,9.10
2023-03-31T23:36:27.863Z,9.00
2023-03-31T23:38:56.210Z,9.00
2023-03-31T23:41:24.195Z,9.00
2023-03-31T23:43:51.269Z,9.00
2023-03-31T23:46:18.506Z,9.00
2023-03-31T23:48:45.696Z,9.00
2023-03-31T23:51:13.296Z,9.00
2023-03-31T23:53:40.082Z,9.10
2023-03-31T23:56:12.326Z,9.10
2023-03-31T23:58:40.660Z,9.00
